DTMB/MIR METAR and TAF weather

Enter ICAO airport designator
Station Type Date Time Source
DTMB METAR 2018/04/23 11:00 UTC NOAA

DTMB 231100Z 06010KT 8000 NSC 24/14 Q1019


Station Type Date Time Source
DTMB Decoded METAR 2018/04/23 11:00 UTC NOAA

Habib Bourguiba , Tunisia (DTMB) 35-46N 010-45E
Apr 23, 2018 - 07:00 AM EDT / 2018.04.23 1100 UTC
Wind: from the ENE (060 degrees) at 12 MPH (10 KT):0
Visibility: 4 mile(s):0
Temperature: 75 F (24 C)
Dew Point: 57 F (14 C)
Relative Humidity: 53%
Pressure (altimeter): 30.09 in. Hg (1019 hPa)
ob: DTMB 231100Z 06010KT 8000 NSC 24/14 Q1019
cycle: 11

Station Type Date Time Source
DTMB TAF 2018/04/23 12:09 UTC NOAA

TAF TAF DTMB 231100Z 2312/2412 07010KT 8000 NSC PROB30
TEMPO 2315/2322 09015G25KT PROB30
TEMPO 2403/2407 VRB03KT 2000 BR FEW010


Example: see airport list